Welby, Colorado
Current Conditions -  °F | °C
As of 2:47 PM on Sunday 23 Nov 2014 (Local Time) from KBJC Reporting Station
Rain Showers Rain Showers  
Wind Chill:   Ceiling: 5000
Heat Index:   Visibility: 15mi
Dew Point: -6°   Wind: 5mph
Humidity: 52%   Direction: 240°WSW
Pressure: 29.8"   Gusts: NA
Location:  39.8532°N, 104.959°W
Report Text: KBJC 232147Z 24004KT 15SM VCSH SCT006 SCT015 BKN050 03/M06 A2980
Loading
Personal Weather Stations






























Interactive Weather Map New forecast layout! Learn more

10-Day Weather Forecast

Advertisements
Track Severe Weather on mobile